createdAt,value
2017-10-14T00:01:28.828Z,72.89
2017-10-14T00:03:57.999Z,72.42
2017-10-14T00:06:26.351Z,72.51
2017-10-14T00:08:54.992Z,72.44
2017-10-14T00:11:24.152Z,73.86
2017-10-14T00:13:53.176Z,73.22
2017-10-14T00:16:22.046Z,73.39
2017-10-14T00:18:51.649Z,73.41
2017-10-14T00:21:20.877Z,73.68
2017-10-14T00:23:49.954Z,74.02
2017-10-14T00:26:19.029Z,74.40
2017-10-14T00:28:48.616Z,74.37
2017-10-14T00:31:17.196Z,73.92
2017-10-14T00:33:47.370Z,74.04
2017-10-14T00:36:15.719Z,74.92
2017-10-14T00:38:44.918Z,74.88
2017-10-14T00:41:17.118Z,75.34
2017-10-14T00:43:45.995Z,75.17
2017-10-14T00:46:14.366Z,73.74
2017-10-14T00:48:42.738Z,73.54
2017-10-14T00:51:12.199Z,72.68
2017-10-14T00:53:42.162Z,72.57
2017-10-14T00:56:11.908Z,72.52
2017-10-14T00:58:40.371Z,72.27
2017-10-14T01:01:09.611Z,72.88
2017-10-14T01:03:38.809Z,73.01
2017-10-14T01:06:07.951Z,72.88
2017-10-14T01:08:37.046Z,72.93
2017-10-14T01:11:06.169Z,73.00
2017-10-14T01:13:35.138Z,72.54
2017-10-14T01:16:04.936Z,73.13
2017-10-14T01:18:33.321Z,73.13
2017-10-14T01:21:01.672Z,73.43
2017-10-14T01:23:30.972Z,73.09
2017-10-14T01:25:59.556Z,73.06
2017-10-14T01:28:28.731Z,73.33
2017-10-14T01:30:57.712Z,73.65
2017-10-14T01:33:27.409Z,72.82
2017-10-14T01:35:55.763Z,72.42
2017-10-14T01:38:24.105Z,73.38
2017-10-14T01:40:53.133Z,73.51
2017-10-14T01:43:21.483Z,74.72
2017-10-14T01:45:49.814Z,74.61
2017-10-14T01:48:18.913Z,74.37
2017-10-14T01:50:47.294Z,75.54
2017-10-14T01:53:15.638Z,74.59
2017-10-14T01:55:44.331Z,74.67
2017-10-14T01:58:12.669Z,74.20
2017-10-14T02:00:41.013Z,74.24
2017-10-14T02:03:09.703Z,74.34
2017-10-14T02:05:38.070Z,74.19
2017-10-14T02:08:07.413Z,74.01
2017-10-14T02:10:35.871Z,74.94
2017-10-14T02:13:05.157Z,74.84
2017-10-14T02:15:33.520Z,74.07
2017-10-14T02:18:02.786Z,75.16
2017-10-14T02:20:32.342Z,74.63
2017-10-14T02:23:01.513Z,74.52
2017-10-14T02:25:30.685Z,73.46
2017-10-14T02:27:59.979Z,74.39
2017-10-14T02:30:28.859Z,73.40
2017-10-14T02:32:57.960Z,73.66
2017-10-14T02:35:27.254Z,74.05
2017-10-14T02:37:55.601Z,74.94
2017-10-14T02:40:24.953Z,74.60
2017-10-14T02:42:53.305Z,74.42
2017-10-14T02:45:21.685Z,74.88
2017-10-14T02:47:50.056Z,74.41
2017-10-14T02:50:19.249Z,74.68
2017-10-14T02:52:49.236Z,74.31
2017-10-14T02:55:17.710Z,73.34
2017-10-14T02:57:46.838Z,73.61
2017-10-14T03:00:16.954Z,74.49
2017-10-14T03:02:46.232Z,74.79
2017-10-14T03:05:16.317Z,73.80
2017-10-14T03:07:45.785Z,73.84
2017-10-14T03:10:15.635Z,73.60
2017-10-14T03:12:44.018Z,73.14
2017-10-14T03:15:13.088Z,73.56
2017-10-14T03:17:42.838Z,74.07
2017-10-14T03:20:11.228Z,73.64
2017-10-14T03:22:39.621Z,73.13
2017-10-14T03:25:10.580Z,72.72
2017-10-14T03:27:39.781Z,73.46
2017-10-14T03:30:09.483Z,73.85
2017-10-14T03:32:39.442Z,72.94
2017-10-14T03:35:09.381Z,72.38
2017-10-14T03:37:39.936Z,72.53
2017-10-14T03:40:09.392Z,72.89
2017-10-14T03:42:37.725Z,72.85
2017-10-14T03:45:06.070Z,72.91
2017-10-14T03:47:36.724Z,72.96
2017-10-14T03:50:05.108Z,72.70
2017-10-14T03:52:33.470Z,73.66
2017-10-14T03:55:02.394Z,72.83
2017-10-14T03:57:31.341Z,73.26
2017-10-14T04:00:00.887Z,73.38
2017-10-14T04:02:30.277Z,74.35
2017-10-14T04:04:59.397Z,73.82
2017-10-14T04:07:27.855Z,73.67
2017-10-14T04:09:57.342Z,73.36
2017-10-14T04:12:28.418Z,73.31
2017-10-14T04:14:58.158Z,73.69
2017-10-14T04:17:26.580Z,74.23
2017-10-14T04:19:56.042Z,73.89
2017-10-14T04:22:25.307Z,73.92
2017-10-14T04:24:54.071Z,73.61
2017-10-14T04:27:22.443Z,73.39
2017-10-14T04:29:51.492Z,73.13
2017-10-14T04:32:22.166Z,72.10
2017-10-14T04:34:50.518Z,72.70
2017-10-14T04:37:20.559Z,71.85
2017-10-14T04:39:50.239Z,72.29
2017-10-14T04:42:20.592Z,73.13
2017-10-14T04:44:49.039Z,72.89
2017-10-14T04:47:19.532Z,73.04
2017-10-14T04:49:48.860Z,74.03
2017-10-14T04:52:18.499Z,74.58
2017-10-14T04:54:47.795Z,74.44
2017-10-14T04:57:17.037Z,73.26
2017-10-14T04:59:46.163Z,73.50
2017-10-14T05:02:15.498Z,73.26
2017-10-14T05:04:44.272Z,72.92
2017-10-14T05:07:13.299Z,73.02
2017-10-14T05:09:42.796Z,72.75
2017-10-14T05:12:11.483Z,72.66
2017-10-14T05:14:40.526Z,72.77
2017-10-14T05:17:11.066Z,72.76
2017-10-14T05:19:40.807Z,72.93
2017-10-14T05:22:10.549Z,73.36
2017-10-14T05:24:40.561Z,73.35
2017-10-14T05:27:08.899Z,73.24
2017-10-14T05:29:38.515Z,73.16
2017-10-14T05:32:10.082Z,73.28
2017-10-14T05:34:39.953Z,73.42
2017-10-14T05:37:09.006Z,73.70
2017-10-14T05:39:37.395Z,72.79
2017-10-14T05:42:06.217Z,72.91
2017-10-14T05:44:34.587Z,73.11
2017-10-14T05:47:05.863Z,73.42
2017-10-14T05:49:34.225Z,73.23
2017-10-14T05:52:04.362Z,73.85
2017-10-14T05:54:36.232Z,74.10
2017-10-14T05:57:04.655Z,74.92
2017-10-14T05:59:33.425Z,74.44
2017-10-14T06:02:01.853Z,74.20
2017-10-14T06:04:30.910Z,73.89
2017-10-14T06:06:59.519Z,73.85
2017-10-14T06:09:27.897Z,74.37
2017-10-14T06:11:57.066Z,73.53
2017-10-14T06:14:26.599Z,73.93
2017-10-14T06:16:55.205Z,73.58
2017-10-14T06:19:24.182Z,73.69
2017-10-14T06:21:54.036Z,72.96
2017-10-14T06:24:22.433Z,73.37
2017-10-14T06:26:51.639Z,72.87
2017-10-14T06:29:21.656Z,73.85
2017-10-14T06:31:50.648Z,73.32
2017-10-14T06:34:19.011Z,73.65
2017-10-14T06:36:47.352Z,73.92
2017-10-14T06:39:16.474Z,73.58
2017-10-14T06:41:45.906Z,73.54
2017-10-14T06:44:14.870Z,72.76
2017-10-14T06:46:43.837Z,73.62
2017-10-14T06:49:12.190Z,73.72
2017-10-14T06:51:40.794Z,73.39
2017-10-14T06:54:09.945Z,72.53
2017-10-14T06:56:39.064Z,72.18
2017-10-14T06:59:07.386Z,72.43
2017-10-14T07:01:35.922Z,73.46
2017-10-14T07:04:04.349Z,73.26
2017-10-14T07:06:32.697Z,72.82
2017-10-14T07:09:02.868Z,73.46
2017-10-14T07:11:31.984Z,73.15
2017-10-14T07:14:00.329Z,72.78
2017-10-14T07:16:30.183Z,73.33
2017-10-14T07:18:59.316Z,73.63
2017-10-14T07:21:27.932Z,73.25
2017-10-14T07:23:57.543Z,72.04
2017-10-14T07:26:26.157Z,72.59
2017-10-14T07:28:54.522Z,72.40
2017-10-14T07:31:24.387Z,73.10
2017-10-14T07:33:52.738Z,73.24
2017-10-14T07:36:21.067Z,72.77
2017-10-14T07:38:50.207Z,72.75
2017-10-14T07:41:19.399Z,72.86
2017-10-14T07:43:47.761Z,72.47
2017-10-14T07:46:16.327Z,72.56
2017-10-14T07:48:45.045Z,72.42
2017-10-14T07:51:14.350Z,72.19
2017-10-14T07:53:43.407Z,72.19
2017-10-14T07:56:11.787Z,72.33
2017-10-14T07:58:41.032Z,71.43
2017-10-14T08:01:09.724Z,71.74
2017-10-14T08:03:38.086Z,71.68
2017-10-14T08:06:07.571Z,72.04
2017-10-14T08:08:36.065Z,72.45
2017-10-14T08:11:04.409Z,72.21
2017-10-14T08:13:32.751Z,71.08
2017-10-14T08:16:01.813Z,70.42
2017-10-14T08:18:30.979Z,70.52
2017-10-14T08:21:00.583Z,70.43
2017-10-14T08:23:29.845Z,70.75
2017-10-14T08:25:59.117Z,71.88
2017-10-14T08:28:27.462Z,71.91
2017-10-14T08:30:56.387Z,71.31
2017-10-14T08:33:25.481Z,70.32
2017-10-14T08:35:55.326Z,70.30
2017-10-14T08:38:23.725Z,69.22
2017-10-14T08:40:54.738Z,69.02
2017-10-14T08:43:24.053Z,68.67
2017-10-14T08:45:52.487Z,69.31
2017-10-14T08:48:22.559Z,69.01
2017-10-14T08:50:51.539Z,70.05
2017-10-14T08:53:21.143Z,69.56
2017-10-14T08:55:51.259Z,69.13
2017-10-14T08:58:22.156Z,70.12
2017-10-14T09:00:51.572Z,70.07
2017-10-14T09:03:21.360Z,70.14
2017-10-14T09:05:49.998Z,69.01
2017-10-14T09:08:18.352Z,67.95
2017-10-14T09:10:46.831Z,67.55
2017-10-14T09:13:16.366Z,67.44
2017-10-14T09:15:44.729Z,66.91
2017-10-14T09:18:13.913Z,66.18
2017-10-14T09:20:44.310Z,67.64
2017-10-14T09:23:12.817Z,67.94
2017-10-14T09:25:42.063Z,66.49
2017-10-14T09:28:11.249Z,67.33
2017-10-14T09:30:39.597Z,67.15
2017-10-14T09:33:09.466Z,67.64
2017-10-14T09:35:37.953Z,67.57
2017-10-14T09:38:06.337Z,68.11
2017-10-14T09:40:35.677Z,67.86
2017-10-14T09:43:04.831Z,68.20
2017-10-14T09:45:33.208Z,69.35
2017-10-14T09:48:01.568Z,69.52
2017-10-14T09:50:30.890Z,68.56
2017-10-14T09:52:59.232Z,68.99
2017-10-14T09:55:30.100Z,69.18
2017-10-14T09:57:59.314Z,68.58
2017-10-14T10:00:27.679Z,68.22
2017-10-14T10:02:56.016Z,66.85
2017-10-14T10:05:24.633Z,67.04
2017-10-14T10:07:53.901Z,67.16
2017-10-14T10:10:22.499Z,65.96
2017-10-14T10:12:51.650Z,65.78
2017-10-14T10:15:20.299Z,65.67
2017-10-14T10:17:48.659Z,65.81
2017-10-14T10:20:20.400Z,65.96
2017-10-14T10:22:50.521Z,66.17
2017-10-14T10:25:19.723Z,67.23
2017-10-14T10:27:48.881Z,64.12
2017-10-14T10:30:19.776Z,60.81
2017-10-14T10:32:49.146Z,61.19
2017-10-14T10:35:18.852Z,62.12
2017-10-14T10:37:50.478Z,62.66
2017-10-14T10:40:19.067Z,64.51
2017-10-14T10:42:48.437Z,64.53
2017-10-14T10:45:17.708Z,64.38
2017-10-14T10:47:46.835Z,64.75
2017-10-14T10:50:15.168Z,65.12
2017-10-14T10:52:45.375Z,65.60
2017-10-14T10:55:14.743Z,65.13
2017-10-14T10:57:43.112Z,64.95
2017-10-14T11:00:12.129Z,65.84
2017-10-14T11:02:41.763Z,65.71
2017-10-14T11:05:10.117Z,66.50
2017-10-14T11:07:39.679Z,66.91
2017-10-14T11:10:08.046Z,66.98
2017-10-14T11:12:38.172Z,67.17
2017-10-14T11:15:10.476Z,67.68
2017-10-14T11:17:39.392Z,67.52
2017-10-14T11:20:08.629Z,67.85
2017-10-14T11:22:41.823Z,68.38
2017-10-14T11:25:11.210Z,69.80
2017-10-14T11:27:40.491Z,69.92
2017-10-14T11:30:09.721Z,69.17
2017-10-14T11:32:38.109Z,68.14
2017-10-14T11:35:08.007Z,68.79
2017-10-14T11:37:36.384Z,68.21
2017-10-14T11:40:06.269Z,68.34
2017-10-14T11:42:35.292Z,68.08
2017-10-14T11:45:04.418Z,66.83
2017-10-14T11:47:32.805Z,67.10
2017-10-14T11:50:01.465Z,66.61
2017-10-14T11:52:29.841Z,66.06
2017-10-14T11:54:59.418Z,65.63
2017-10-14T11:57:28.635Z,65.95
2017-10-14T11:59:57.915Z,67.13
2017-10-14T12:02:27.070Z,68.35
2017-10-14T12:04:57.360Z,67.91
2017-10-14T12:07:27.363Z,67.64
2017-10-14T12:09:56.271Z,67.94
2017-10-14T12:12:25.483Z,68.19
2017-10-14T12:14:54.632Z,67.53
2017-10-14T12:17:24.689Z,66.77
2017-10-14T12:19:54.050Z,68.08
2017-10-14T12:22:23.083Z,68.07
2017-10-14T12:24:52.756Z,68.17
2017-10-14T12:27:21.230Z,67.47
2017-10-14T12:29:50.595Z,68.60
2017-10-14T12:32:21.194Z,67.42
2017-10-14T12:34:51.426Z,66.75
2017-10-14T12:37:19.870Z,67.39
2017-10-14T12:39:49.002Z,66.99
2017-10-14T12:42:17.877Z,68.09
2017-10-14T12:44:46.955Z,68.62
2017-10-14T12:47:17.154Z,67.89
2017-10-14T12:49:45.733Z,68.70
2017-10-14T12:52:15.345Z,68.26
2017-10-14T12:54:43.697Z,68.39
2017-10-14T12:57:12.066Z,69.07
2017-10-14T12:59:40.837Z,69.30
2017-10-14T13:02:09.227Z,70.00
2017-10-14T13:04:38.157Z,70.12
2017-10-14T13:07:06.513Z,69.09
2017-10-14T13:09:36.337Z,68.24
2017-10-14T13:12:06.266Z,69.40
2017-10-14T13:14:35.298Z,69.21
2017-10-14T13:17:04.076Z,68.66
2017-10-14T13:19:33.148Z,69.29
2017-10-14T13:22:02.212Z,69.14
2017-10-14T13:24:31.578Z,68.39
2017-10-14T13:27:00.476Z,68.97
2017-10-14T13:29:29.076Z,69.54
2017-10-14T13:31:58.491Z,69.38
2017-10-14T13:34:27.647Z,69.49
2017-10-14T13:36:56.006Z,70.00
2017-10-14T13:39:24.373Z,69.44
2017-10-14T13:41:52.770Z,68.98
2017-10-14T13:44:21.690Z,68.70
2017-10-14T13:46:50.054Z,68.24
2017-10-14T13:49:18.437Z,70.16
2017-10-14T13:51:46.790Z,70.92
2017-10-14T13:54:15.963Z,70.52
2017-10-14T13:56:46.434Z,70.86
2017-10-14T13:59:14.828Z,69.56
2017-10-14T14:01:43.170Z,69.14
2017-10-14T14:04:12.155Z,68.15
2017-10-14T14:06:41.409Z,68.77
2017-10-14T14:09:10.795Z,68.74
2017-10-14T14:11:39.209Z,69.56
2017-10-14T14:14:09.034Z,69.76
2017-10-14T14:16:38.286Z,70.46
2017-10-14T14:19:08.500Z,70.11
2017-10-14T14:21:37.665Z,69.24
2017-10-14T14:24:06.934Z,69.80
2017-10-14T14:26:36.884Z,66.24
2017-10-14T14:29:06.728Z,63.30
2017-10-14T14:31:35.081Z,62.92
2017-10-14T14:34:03.462Z,62.93
2017-10-14T14:36:32.556Z,62.67
2017-10-14T14:39:01.466Z,63.43
2017-10-14T14:41:31.791Z,61.80
2017-10-14T14:44:01.510Z,62.50
2017-10-14T14:46:31.372Z,62.05
2017-10-14T14:49:00.372Z,61.96
2017-10-14T14:51:28.753Z,62.47
2017-10-14T14:53:57.116Z,63.78
2017-10-14T14:56:25.492Z,64.12
2017-10-14T14:58:54.610Z,63.93
2017-10-14T15:01:23.753Z,64.94
2017-10-14T15:03:53.238Z,64.40
2017-10-14T15:06:21.602Z,64.61
2017-10-14T15:08:51.471Z,65.17
2017-10-14T15:11:19.852Z,64.33
2017-10-14T15:13:48.213Z,62.30
2017-10-14T15:16:16.599Z,60.27
2017-10-14T15:18:45.408Z,59.27
2017-10-14T15:21:14.028Z,59.49
2017-10-14T15:23:42.416Z,60.36
2017-10-14T15:26:11.920Z,61.36
2017-10-14T15:28:41.307Z,63.67
2017-10-14T15:31:11.264Z,64.42
2017-10-14T15:33:40.461Z,64.64
2017-10-14T15:36:08.803Z,64.96
2017-10-14T15:38:39.435Z,65.25
2017-10-14T15:41:08.620Z,65.39
2017-10-14T15:43:36.987Z,66.15
2017-10-14T15:46:06.106Z,66.79
2017-10-14T15:48:36.498Z,66.68
2017-10-14T15:51:06.447Z,66.69
2017-10-14T15:53:35.529Z,66.34
2017-10-14T15:56:04.707Z,66.89
2017-10-14T15:58:33.304Z,67.08
2017-10-14T16:01:01.668Z,67.68
2017-10-14T16:03:30.120Z,67.24
2017-10-14T16:05:59.379Z,67.19
2017-10-14T16:08:28.864Z,67.59
2017-10-14T16:10:57.202Z,66.94
2017-10-14T16:13:25.548Z,67.04
2017-10-14T16:15:54.719Z,66.37
2017-10-14T16:18:23.767Z,66.58
2017-10-14T16:20:53.117Z,65.97
2017-10-14T16:23:22.205Z,66.49
2017-10-14T16:25:50.567Z,66.20
2017-10-14T16:28:18.929Z,65.95
2017-10-14T16:30:47.470Z,65.93
2017-10-14T16:33:15.930Z,66.25
2017-10-14T16:35:44.300Z,66.02
2017-10-14T16:38:12.687Z,65.93
2017-10-14T16:40:42.660Z,65.96
2017-10-14T16:43:12.949Z,65.95
2017-10-14T16:45:41.306Z,66.19
2017-10-14T16:48:15.497Z,66.48
2017-10-14T16:50:44.690Z,66.23
2017-10-14T16:53:13.847Z,66.47
2017-10-14T16:55:42.438Z,66.60
2017-10-14T16:58:11.771Z,66.91
2017-10-14T17:00:40.937Z,67.34
2017-10-14T17:03:09.315Z,67.33
2017-10-14T17:05:39.190Z,67.55
2017-10-14T17:08:08.549Z,67.67
2017-10-14T17:10:37.771Z,67.66
2017-10-14T17:13:06.875Z,67.67
2017-10-14T17:15:36.261Z,67.59
2017-10-14T17:18:05.776Z,68.41
2017-10-14T17:20:34.354Z,68.97
2017-10-14T17:23:02.709Z,68.57
2017-10-14T17:25:31.110Z,68.53
2017-10-14T17:28:00.947Z,68.71
2017-10-14T17:30:29.478Z,68.73
2017-10-14T17:33:00.644Z,68.86
2017-10-14T17:35:29.958Z,68.64
2017-10-14T17:37:58.372Z,69.12
2017-10-14T17:40:27.529Z,69.43
2017-10-14T17:42:56.039Z,69.84
2017-10-14T17:45:26.103Z,70.03
2017-10-14T17:47:55.811Z,70.05
2017-10-14T17:50:24.162Z,70.73
2017-10-14T17:52:52.821Z,71.27
2017-10-14T17:55:21.487Z,71.71
2017-10-14T17:57:50.855Z,72.41
2017-10-14T18:00:19.588Z,72.84
2017-10-14T18:02:48.374Z,73.21
2017-10-14T18:05:17.417Z,73.78
2017-10-14T18:07:46.631Z,74.51
2017-10-14T18:10:15.022Z,73.65
2017-10-14T18:12:45.103Z,74.51
2017-10-14T18:15:13.704Z,74.56
2017-10-14T18:17:43.098Z,74.71
2017-10-14T18:20:12.024Z,74.78
2017-10-14T18:22:40.646Z,75.65
2017-10-14T18:25:09.022Z,74.61
2017-10-14T18:27:37.407Z,74.43
2017-10-14T18:30:06.985Z,74.24
2017-10-14T18:32:35.661Z,74.35
2017-10-14T18:35:04.960Z,73.93
2017-10-14T18:37:34.084Z,73.94
2017-10-14T18:40:04.335Z,73.66
2017-10-14T18:42:32.929Z,74.62
2017-10-14T18:45:03.070Z,75.18
2017-10-14T18:47:31.450Z,74.75
2017-10-14T18:49:59.806Z,74.55
2017-10-14T18:52:28.161Z,74.22
2017-10-14T18:54:57.793Z,74.54
2017-10-14T18:57:26.886Z,74.61
2017-10-14T18:59:55.558Z,74.40
2017-10-14T19:02:23.990Z,74.26
2017-10-14T19:04:53.929Z,74.37
2017-10-14T19:07:22.324Z,74.63
2017-10-14T19:09:52.200Z,74.43
2017-10-14T19:12:20.852Z,74.53
2017-10-14T19:14:49.250Z,74.22
2017-10-14T19:17:17.642Z,74.02
2017-10-14T19:19:46.822Z,73.96
2017-10-14T19:22:16.578Z,74.84
2017-10-14T19:24:45.982Z,74.41
2017-10-14T19:27:14.345Z,74.09
2017-10-14T19:29:44.446Z,73.80
2017-10-14T19:32:14.508Z,73.36
2017-10-14T19:34:43.010Z,73.08
2017-10-14T19:37:12.079Z,73.35
2017-10-14T19:39:40.484Z,73.29
2017-10-14T19:42:08.906Z,73.99
2017-10-14T19:44:37.318Z,74.75
2017-10-14T19:47:06.741Z,75.76
2017-10-14T19:49:35.113Z,75.67
2017-10-14T19:52:04.923Z,75.48
2017-10-14T19:54:34.433Z,75.01
2017-10-14T19:57:03.726Z,74.86
2017-10-14T19:59:32.094Z,75.23
2017-10-14T20:02:01.666Z,75.43
2017-10-14T20:04:32.157Z,75.53
2017-10-14T20:07:00.530Z,75.77
2017-10-14T20:09:29.216Z,76.20
2017-10-14T20:11:57.590Z,76.76
2017-10-14T20:14:25.945Z,76.92
2017-10-14T20:16:54.657Z,77.03
2017-10-14T20:19:23.011Z,78.26
2017-10-14T20:21:52.946Z,78.87
2017-10-14T20:24:23.116Z,79.43
2017-10-14T20:26:52.708Z,78.94
2017-10-14T20:29:21.828Z,78.58
2017-10-14T20:31:51.614Z,79.03
2017-10-14T20:34:20.766Z,79.01
2017-10-14T20:36:50.695Z,79.75
2017-10-14T20:39:19.364Z,79.36
2017-10-14T20:41:47.745Z,79.04
2017-10-14T20:44:18.286Z,78.17
2017-10-14T20:46:48.613Z,78.28
2017-10-14T20:49:17.518Z,77.86
2017-10-14T20:51:46.699Z,77.91
2017-10-14T20:54:16.047Z,77.62
2017-10-14T20:56:44.403Z,77.50
2017-10-14T20:59:13.047Z,77.18
2017-10-14T21:01:43.145Z,77.35
2017-10-14T21:04:11.524Z,76.93
2017-10-14T21:06:40.678Z,76.96
2017-10-14T21:09:09.034Z,77.05
2017-10-14T21:11:38.517Z,77.06
2017-10-14T21:14:07.056Z,77.20
2017-10-14T21:16:36.867Z,77.16
2017-10-14T21:19:05.675Z,77.53
2017-10-14T21:21:35.004Z,77.83
2017-10-14T21:24:03.385Z,78.06
2017-10-14T21:26:32.569Z,78.26
2017-10-14T21:29:01.803Z,78.76
2017-10-14T21:31:31.791Z,78.69
2017-10-14T21:34:00.979Z,79.50
2017-10-14T21:36:32.197Z,79.61
2017-10-14T21:39:00.742Z,80.34
2017-10-14T21:41:30.584Z,80.23
2017-10-14T21:44:00.896Z,80.70
2017-10-14T21:46:31.671Z,81.12
2017-10-14T21:49:00.059Z,81.12
2017-10-14T21:51:28.429Z,82.37
2017-10-14T21:53:58.324Z,82.22
2017-10-14T21:56:27.242Z,81.46
2017-10-14T21:58:55.623Z,80.98
2017-10-14T22:01:25.102Z,81.35
2017-10-14T22:03:53.468Z,81.63
2017-10-14T22:06:22.489Z,81.72
2017-10-14T22:08:50.906Z,82.08
2017-10-14T22:11:20.203Z,82.35
2017-10-14T22:13:50.147Z,82.22
2017-10-14T22:16:19.830Z,82.05
2017-10-14T22:18:48.855Z,81.71
2017-10-14T22:21:19.544Z,81.10
2017-10-14T22:23:48.810Z,80.54
2017-10-14T22:26:17.616Z,80.10
2017-10-14T22:28:47.256Z,79.89
2017-10-14T22:31:15.993Z,79.36
2017-10-14T22:33:44.802Z,79.50
2017-10-14T22:36:13.349Z,79.16
2017-10-14T22:38:42.418Z,78.97
2017-10-14T22:41:11.551Z,78.79
2017-10-14T22:43:40.219Z,78.84
2017-10-14T22:46:09.410Z,79.28
2017-10-14T22:48:39.817Z,79.21
2017-10-14T22:51:09.352Z,79.03
2017-10-14T22:53:38.334Z,79.23
2017-10-14T22:56:07.359Z,79.06
2017-10-14T22:58:35.734Z,79.42
2017-10-14T23:01:04.184Z,79.59
2017-10-14T23:03:32.526Z,80.83
2017-10-14T23:06:00.983Z,81.28
2017-10-14T23:08:30.218Z,81.04
2017-10-14T23:10:59.373Z,81.79
2017-10-14T23:13:28.649Z,81.64
2017-10-14T23:15:57.039Z,81.75
2017-10-14T23:18:26.163Z,81.09
2017-10-14T23:20:55.531Z,81.67
2017-10-14T23:23:24.001Z,80.95
2017-10-14T23:25:53.154Z,80.95
2017-10-14T23:28:21.498Z,80.72
2017-10-14T23:30:49.951Z,80.63
2017-10-14T23:33:18.302Z,80.38
2017-10-14T23:35:46.656Z,80.25
2017-10-14T23:38:15.033Z,79.84
2017-10-14T23:40:43.378Z,78.62
2017-10-14T23:43:11.734Z,78.40
2017-10-14T23:45:40.131Z,79.86
2017-10-14T23:48:09.281Z,80.75
2017-10-14T23:50:38.322Z,80.30
2017-10-14T23:53:07.628Z,79.89
2017-10-14T23:55:36.752Z,79.83
2017-10-14T23:58:05.113Z,80.05
